首页
METAR-TAF:

METAR-TAF

机场 :

Baker Municipal Airport

Baker, 蒙大拿州, 美国

纬度: 46-20-52N, 经度: 104-15-27W, 海拔: 905米

当前天气观测

该预报发布于58分钟前的20:51 UTC
风速16节,风向西北,有时为24节阵风
温度 25°C
湿度 26%
气压 1013 hPa
能見度: 16.1公里
天空无云

METAR: KBHK 032051Z AUTO 32016G24KT 10SM CLR 25/04 A2991 RMK AO2 SLP113 T02500039 58006

时间: 15:49 (21:49 UTC)


TAF: 丢失

超过4000个机场的气象观测和天气预报(METAR&TAF报告)。

可查询的气象台以黄色和红色小点在地图上表示。

将鼠标移到小点上方,可查看气象台名称。

然后点击查看天气观测和预报。

如需切换地图:点击带黑十字的绿色按钮放大地图;点击带横线的绿色按钮缩小地图;或者点击绿色箭头查看邻近地区的地图。


METAR-TAF: